sensor_id;sensor_type;location;lat;lon;timestamp;P1;durP1;ratioP1;P2;durP2;ratioP2
16504;SDS011;8365;51.030;4.696;2023-01-29T00:00:45;69.43;;;49.33;;
16504;SDS011;8365;51.030;4.696;2023-01-29T00:03:16;70.43;;;50.23;;
16504;SDS011;8365;51.030;4.696;2023-01-29T00:05:46;80.20;;;52.73;;
16504;SDS011;8365;51.030;4.696;2023-01-29T00:08:17;78.93;;;53.73;;
16504;SDS011;8365;51.030;4.696;2023-01-29T00:10:48;77.97;;;51.67;;
16504;SDS011;8365;51.030;4.696;2023-01-29T00:13:22;69.07;;;47.93;;
16504;SDS011;8365;51.030;4.696;2023-01-29T00:15:56;77.37;;;51.63;;
16504;SDS011;8365;51.030;4.696;2023-01-29T00:18:27;70.50;;;47.80;;
16504;SDS011;8365;51.030;4.696;2023-01-29T00:20:59;65.40;;;44.73;;
16504;SDS011;8365;51.030;4.696;2023-01-29T00:23:29;60.43;;;43.57;;
16504;SDS011;8365;51.030;4.696;2023-01-29T00:25:59;64.40;;;43.87;;
16504;SDS011;8365;51.030;4.696;2023-01-29T00:28:30;65.23;;;44.43;;
16504;SDS011;8365;51.030;4.696;2023-01-29T00:31:11;63.77;;;45.90;;
16504;SDS011;8365;51.030;4.696;2023-01-29T00:33:45;65.73;;;44.43;;
16504;SDS011;8365;51.030;4.696;2023-01-29T00:36:17;74.40;;;47.83;;
16504;SDS011;8365;51.030;4.696;2023-01-29T00:38:53;62.73;;;44.43;;
16504;SDS011;8365;51.030;4.696;2023-01-29T00:41:31;65.00;;;43.57;;
16504;SDS011;8365;51.030;4.696;2023-01-29T00:44:20;62.70;;;44.97;;
16504;SDS011;8365;51.030;4.696;2023-01-29T00:47:09;65.20;;;44.57;;
16504;SDS011;8365;51.030;4.696;2023-01-29T00:50:15;66.77;;;44.43;;
16504;SDS011;8365;51.030;4.696;2023-01-29T00:52:48;65.60;;;41.83;;
16504;SDS011;8365;51.030;4.696;2023-01-29T00:55:20;64.60;;;41.33;;
16504;SDS011;8365;51.030;4.696;2023-01-29T00:57:51;60.57;;;44.30;;
16504;SDS011;8365;51.030;4.696;2023-01-29T01:00:21;62.23;;;43.03;;
16504;SDS011;8365;51.030;4.696;2023-01-29T01:02:53;63.73;;;42.90;;
16504;SDS011;8365;51.030;4.696;2023-01-29T01:05:36;62.37;;;42.10;;
16504;SDS011;8365;51.030;4.696;2023-01-29T01:08:08;61.37;;;41.83;;
16504;SDS011;8365;51.030;4.696;2023-01-29T01:10:59;58.47;;;42.03;;
16504;SDS011;8365;51.030;4.696;2023-01-29T01:13:31;55.13;;;40.40;;
16504;SDS011;8365;51.030;4.696;2023-01-29T01:16:09;56.70;;;39.70;;
16504;SDS011;8365;51.030;4.696;2023-01-29T01:18:45;54.47;;;38.90;;
16504;SDS011;8365;51.030;4.696;2023-01-29T01:21:16;57.47;;;39.90;;
16504;SDS011;8365;51.030;4.696;2023-01-29T01:23:46;58.87;;;41.30;;
16504;SDS011;8365;51.030;4.696;2023-01-29T01:26:17;60.57;;;41.97;;
16504;SDS011;8365;51.030;4.696;2023-01-29T01:28:48;56.30;;;38.63;;
16504;SDS011;8365;51.030;4.696;2023-01-29T01:31:18;52.53;;;37.30;;
16504;SDS011;8365;51.030;4.696;2023-01-29T01:33:49;53.23;;;37.70;;
16504;SDS011;8365;51.030;4.696;2023-01-29T01:36:20;54.47;;;36.60;;
16504;SDS011;8365;51.030;4.696;2023-01-29T01:38:51;55.20;;;38.53;;
16504;SDS011;8365;51.030;4.696;2023-01-29T01:41:21;50.63;;;35.17;;
16504;SDS011;8365;51.030;4.696;2023-01-29T01:43:54;56.70;;;37.57;;
16504;SDS011;8365;51.030;4.696;2023-01-29T01:46:30;50.50;;;35.87;;
16504;SDS011;8365;51.030;4.696;2023-01-29T01:49:22;51.93;;;36.23;;
16504;SDS011;8365;51.030;4.696;2023-01-29T01:51:53;53.30;;;35.80;;
16504;SDS011;8365;51.030;4.696;2023-01-29T01:54:25;54.53;;;37.77;;
16504;SDS011;8365;51.030;4.696;2023-01-29T01:57:02;52.20;;;35.93;;
16504;SDS011;8365;51.030;4.696;2023-01-29T01:59:38;54.80;;;36.43;;
16504;SDS011;8365;51.030;4.696;2023-01-29T02:02:09;55.43;;;38.17;;
16504;SDS011;8365;51.030;4.696;2023-01-29T02:04:59;54.47;;;37.07;;
16504;SDS011;8365;51.030;4.696;2023-01-29T02:07:48;55.10;;;38.33;;
16504;SDS011;8365;51.030;4.696;2023-01-29T02:10:42;53.80;;;37.83;;
16504;SDS011;8365;51.030;4.696;2023-01-29T02:13:14;56.93;;;38.30;;
16504;SDS011;8365;51.030;4.696;2023-01-29T02:15:47;57.10;;;38.50;;
16504;SDS011;8365;51.030;4.696;2023-01-29T02:18:18;55.97;;;37.80;;
16504;SDS011;8365;51.030;4.696;2023-01-29T02:32:38;52.70;;;35.83;;
16504;SDS011;8365;51.030;4.696;2023-01-29T02:35:43;55.70;;;36.30;;
16504;SDS011;8365;51.030;4.696;2023-01-29T02:38:38;53.80;;;35.53;;
16504;SDS011;8365;51.030;4.696;2023-01-29T02:41:51;49.40;;;35.60;;
16504;SDS011;8365;51.030;4.696;2023-01-29T02:52:24;52.53;;;35.97;;
16504;SDS011;8365;51.030;4.696;2023-01-29T02:54:59;53.77;;;35.57;;
16504;SDS011;8365;51.030;4.696;2023-01-29T02:57:42;51.87;;;34.97;;
16504;SDS011;8365;51.030;4.696;2023-01-29T03:00:22;52.60;;;35.23;;
16504;SDS011;8365;51.030;4.696;2023-01-29T03:03:11;48.60;;;35.17;;
16504;SDS011;8365;51.030;4.696;2023-01-29T03:11:29;51.63;;;35.30;;
16504;SDS011;8365;51.030;4.696;2023-01-29T03:14:21;50.63;;;33.73;;
16504;SDS011;8365;51.030;4.696;2023-01-29T03:17:20;56.00;;;33.33;;
16504;SDS011;8365;51.030;4.696;2023-01-29T03:19:55;54.70;;;33.67;;
16504;SDS011;8365;51.030;4.696;2023-01-29T03:22:27;50.37;;;33.33;;
16504;SDS011;8365;51.030;4.696;2023-01-29T03:24:58;51.87;;;34.43;;
16504;SDS011;8365;51.030;4.696;2023-01-29T03:30:23;50.83;;;33.63;;
16504;SDS011;8365;51.030;4.696;2023-01-29T03:33:14;50.67;;;34.67;;
16504;SDS011;8365;51.030;4.696;2023-01-29T03:35:52;48.80;;;33.23;;
16504;SDS011;8365;51.030;4.696;2023-01-29T03:38:31;50.37;;;33.43;;
16504;SDS011;8365;51.030;4.696;2023-01-29T03:41:09;47.97;;;32.57;;
16504;SDS011;8365;51.030;4.696;2023-01-29T03:46:45;44.67;;;31.40;;
16504;SDS011;8365;51.030;4.696;2023-01-29T03:49:34;47.10;;;30.93;;
16504;SDS011;8365;51.030;4.696;2023-01-29T03:52:25;43.77;;;29.97;;
16504;SDS011;8365;51.030;4.696;2023-01-29T03:58:07;46.97;;;30.90;;
16504;SDS011;8365;51.030;4.696;2023-01-29T04:00:49;47.70;;;31.67;;
16504;SDS011;8365;51.030;4.696;2023-01-29T04:03:34;44.33;;;30.03;;
16504;SDS011;8365;51.030;4.696;2023-01-29T04:06:23;46.27;;;29.90;;
16504;SDS011;8365;51.030;4.696;2023-01-29T04:09:07;46.57;;;29.83;;
16504;SDS011;8365;51.030;4.696;2023-01-29T04:11:44;43.97;;;29.40;;
16504;SDS011;8365;51.030;4.696;2023-01-29T04:14:19;45.13;;;29.50;;
16504;SDS011;8365;51.030;4.696;2023-01-29T04:16:51;46.57;;;30.80;;
16504;SDS011;8365;51.030;4.696;2023-01-29T04:19:24;44.70;;;28.37;;
16504;SDS011;8365;51.030;4.696;2023-01-29T04:22:03;45.07;;;29.73;;
16504;SDS011;8365;51.030;4.696;2023-01-29T04:24:54;43.20;;;29.20;;
16504;SDS011;8365;51.030;4.696;2023-01-29T04:41:35;42.53;;;28.57;;
16504;SDS011;8365;51.030;4.696;2023-01-29T04:53:09;43.57;;;28.00;;
16504;SDS011;8365;51.030;4.696;2023-01-29T04:55:48;43.60;;;27.43;;
16504;SDS011;8365;51.030;4.696;2023-01-29T04:59:10;43.60;;;28.13;;
16504;SDS011;8365;51.030;4.696;2023-01-29T05:01:25;41.90;;;26.67;;
16504;SDS011;8365;51.030;4.696;2023-01-29T05:04:03;40.87;;;27.10;;
16504;SDS011;8365;51.030;4.696;2023-01-29T05:06:37;42.93;;;27.13;;
16504;SDS011;8365;51.030;4.696;2023-01-29T05:09:09;42.03;;;26.77;;
16504;SDS011;8365;51.030;4.696;2023-01-29T05:11:45;42.77;;;27.20;;
16504;SDS011;8365;51.030;4.696;2023-01-29T05:14:17;39.70;;;26.80;;
16504;SDS011;8365;51.030;4.696;2023-01-29T05:16:50;43.83;;;27.23;;
16504;SDS011;8365;51.030;4.696;2023-01-29T05:19:22;41.57;;;27.47;;
16504;SDS011;8365;51.030;4.696;2023-01-29T05:21:53;39.10;;;25.90;;
16504;SDS011;8365;51.030;4.696;2023-01-29T05:24:24;40.63;;;26.07;;
16504;SDS011;8365;51.030;4.696;2023-01-29T05:26:55;42.23;;;26.80;;
16504;SDS011;8365;51.030;4.696;2023-01-29T05:29:45;42.63;;;27.13;;
16504;SDS011;8365;51.030;4.696;2023-01-29T05:32:16;40.70;;;25.10;;
16504;SDS011;8365;51.030;4.696;2023-01-29T05:34:46;38.63;;;26.93;;
16504;SDS011;8365;51.030;4.696;2023-01-29T05:37:17;41.47;;;25.87;;
16504;SDS011;8365;51.030;4.696;2023-01-29T05:39:47;36.93;;;25.40;;
16504;SDS011;8365;51.030;4.696;2023-01-29T05:42:18;41.97;;;26.17;;
16504;SDS011;8365;51.030;4.696;2023-01-29T05:44:48;39.87;;;25.67;;
16504;SDS011;8365;51.030;4.696;2023-01-29T05:47:19;39.27;;;24.80;;
16504;SDS011;8365;51.030;4.696;2023-01-29T05:49:50;39.33;;;25.57;;
16504;SDS011;8365;51.030;4.696;2023-01-29T05:52:20;35.07;;;24.60;;
16504;SDS011;8365;51.030;4.696;2023-01-29T05:54:50;40.07;;;24.83;;
16504;SDS011;8365;51.030;4.696;2023-01-29T05:57:23;40.87;;;26.90;;
16504;SDS011;8365;51.030;4.696;2023-01-29T05:59:56;36.60;;;24.47;;
16504;SDS011;8365;51.030;4.696;2023-01-29T06:02:28;41.20;;;26.50;;
16504;SDS011;8365;51.030;4.696;2023-01-29T06:05:02;39.67;;;25.67;;
16504;SDS011;8365;51.030;4.696;2023-01-29T06:07:33;39.27;;;26.83;;
16504;SDS011;8365;51.030;4.696;2023-01-29T06:10:04;36.90;;;24.33;;
16504;SDS011;8365;51.030;4.696;2023-01-29T06:12:34;42.20;;;26.27;;
16504;SDS011;8365;51.030;4.696;2023-01-29T06:15:05;41.60;;;25.40;;
16504;SDS011;8365;51.030;4.696;2023-01-29T06:17:36;35.50;;;23.13;;
16504;SDS011;8365;51.030;4.696;2023-01-29T06:20:07;40.03;;;25.47;;
16504;SDS011;8365;51.030;4.696;2023-01-29T06:22:38;38.97;;;24.50;;
16504;SDS011;8365;51.030;4.696;2023-01-29T06:25:08;39.50;;;25.30;;
16504;SDS011;8365;51.030;4.696;2023-01-29T06:27:39;38.20;;;24.80;;
16504;SDS011;8365;51.030;4.696;2023-01-29T06:30:10;37.80;;;24.20;;
16504;SDS011;8365;51.030;4.696;2023-01-29T06:32:41;37.30;;;25.70;;
16504;SDS011;8365;51.030;4.696;2023-01-29T06:35:11;42.30;;;26.10;;
16504;SDS011;8365;51.030;4.696;2023-01-29T06:37:42;39.37;;;25.30;;
16504;SDS011;8365;51.030;4.696;2023-01-29T06:40:12;39.93;;;26.57;;
16504;SDS011;8365;51.030;4.696;2023-01-29T06:42:43;39.60;;;25.90;;
16504;SDS011;8365;51.030;4.696;2023-01-29T06:45:13;37.57;;;25.60;;
16504;SDS011;8365;51.030;4.696;2023-01-29T06:47:46;42.10;;;26.00;;
16504;SDS011;8365;51.030;4.696;2023-01-29T06:50:17;40.60;;;26.73;;
16504;SDS011;8365;51.030;4.696;2023-01-29T06:52:47;39.60;;;26.27;;
16504;SDS011;8365;51.030;4.696;2023-01-29T06:55:18;40.70;;;25.23;;
16504;SDS011;8365;51.030;4.696;2023-01-29T06:57:48;40.33;;;26.07;;
16504;SDS011;8365;51.030;4.696;2023-01-29T07:00:19;41.07;;;26.73;;
16504;SDS011;8365;51.030;4.696;2023-01-29T07:02:50;39.03;;;25.23;;
16504;SDS011;8365;51.030;4.696;2023-01-29T07:05:21;42.40;;;26.77;;
16504;SDS011;8365;51.030;4.696;2023-01-29T07:07:51;40.63;;;27.23;;
16504;SDS011;8365;51.030;4.696;2023-01-29T07:10:25;42.07;;;26.70;;
16504;SDS011;8365;51.030;4.696;2023-01-29T07:12:58;40.80;;;26.23;;
16504;SDS011;8365;51.030;4.696;2023-01-29T07:15:29;43.00;;;27.00;;
16504;SDS011;8365;51.030;4.696;2023-01-29T07:18:00;46.73;;;27.53;;
16504;SDS011;8365;51.030;4.696;2023-01-29T07:20:41;44.73;;;27.30;;
16504;SDS011;8365;51.030;4.696;2023-01-29T07:23:12;44.83;;;28.37;;
16504;SDS011;8365;51.030;4.696;2023-01-29T07:25:43;40.90;;;25.47;;
16504;SDS011;8365;51.030;4.696;2023-01-29T07:28:14;42.30;;;26.37;;
16504;SDS011;8365;51.030;4.696;2023-01-29T07:30:46;39.97;;;26.63;;
16504;SDS011;8365;51.030;4.696;2023-01-29T07:33:16;43.73;;;27.03;;
16504;SDS011;8365;51.030;4.696;2023-01-29T07:35:47;43.00;;;28.13;;
16504;SDS011;8365;51.030;4.696;2023-01-29T07:38:17;41.20;;;27.67;;
16504;SDS011;8365;51.030;4.696;2023-01-29T07:40:53;46.77;;;29.47;;
16504;SDS011;8365;51.030;4.696;2023-01-29T07:43:23;44.73;;;27.63;;
16504;SDS011;8365;51.030;4.696;2023-01-29T07:45:54;41.60;;;27.37;;
16504;SDS011;8365;51.030;4.696;2023-01-29T07:48:24;44.17;;;27.87;;
16504;SDS011;8365;51.030;4.696;2023-01-29T07:50:55;40.23;;;27.10;;
16504;SDS011;8365;51.030;4.696;2023-01-29T07:53:26;44.77;;;28.37;;
16504;SDS011;8365;51.030;4.696;2023-01-29T07:55:57;43.67;;;26.67;;
16504;SDS011;8365;51.030;4.696;2023-01-29T07:58:28;40.20;;;26.37;;
16504;SDS011;8365;51.030;4.696;2023-01-29T08:00:58;42.63;;;27.53;;
16504;SDS011;8365;51.030;4.696;2023-01-29T08:03:28;42.60;;;26.50;;
16504;SDS011;8365;51.030;4.696;2023-01-29T08:05:59;43.53;;;28.17;;
16504;SDS011;8365;51.030;4.696;2023-01-29T08:08:29;41.23;;;27.17;;
16504;SDS011;8365;51.030;4.696;2023-01-29T08:11:01;44.93;;;28.03;;
16504;SDS011;8365;51.030;4.696;2023-01-29T08:13:32;45.93;;;26.60;;
16504;SDS011;8365;51.030;4.696;2023-01-29T08:16:03;42.13;;;26.20;;
16504;SDS011;8365;51.030;4.696;2023-01-29T08:18:35;42.87;;;28.07;;
16504;SDS011;8365;51.030;4.696;2023-01-29T08:21:06;41.70;;;27.33;;
16504;SDS011;8365;51.030;4.696;2023-01-29T08:23:37;44.00;;;27.43;;
16504;SDS011;8365;51.030;4.696;2023-01-29T08:26:07;43.40;;;27.70;;
16504;SDS011;8365;51.030;4.696;2023-01-29T08:28:38;42.67;;;28.27;;
16504;SDS011;8365;51.030;4.696;2023-01-29T08:31:12;42.97;;;28.80;;
16504;SDS011;8365;51.030;4.696;2023-01-29T08:33:44;43.33;;;28.80;;
16504;SDS011;8365;51.030;4.696;2023-01-29T08:36:17;47.50;;;30.10;;
16504;SDS011;8365;51.030;4.696;2023-01-29T08:38:48;45.57;;;29.53;;
16504;SDS011;8365;51.030;4.696;2023-01-29T08:41:18;46.07;;;29.87;;
16504;SDS011;8365;51.030;4.696;2023-01-29T08:43:49;43.00;;;28.93;;
16504;SDS011;8365;51.030;4.696;2023-01-29T08:46:19;43.67;;;27.57;;
16504;SDS011;8365;51.030;4.696;2023-01-29T08:48:49;44.97;;;29.10;;
16504;SDS011;8365;51.030;4.696;2023-01-29T08:51:20;45.50;;;29.20;;
16504;SDS011;8365;51.030;4.696;2023-01-29T08:53:51;45.23;;;28.17;;
16504;SDS011;8365;51.030;4.696;2023-01-29T08:56:24;42.53;;;27.57;;
16504;SDS011;8365;51.030;4.696;2023-01-29T08:58:55;40.97;;;27.03;;
16504;SDS011;8365;51.030;4.696;2023-01-29T09:01:25;47.17;;;28.13;;
16504;SDS011;8365;51.030;4.696;2023-01-29T09:03:56;46.53;;;29.17;;
16504;SDS011;8365;51.030;4.696;2023-01-29T09:06:26;46.53;;;29.27;;
16504;SDS011;8365;51.030;4.696;2023-01-29T09:08:56;45.60;;;28.30;;
16504;SDS011;8365;51.030;4.696;2023-01-29T09:11:27;43.57;;;29.13;;
16504;SDS011;8365;51.030;4.696;2023-01-29T09:13:57;42.77;;;29.23;;
16504;SDS011;8365;51.030;4.696;2023-01-29T09:16:28;41.43;;;28.60;;
16504;SDS011;8365;51.030;4.696;2023-01-29T09:18:58;42.93;;;27.43;;
16504;SDS011;8365;51.030;4.696;2023-01-29T09:21:29;44.20;;;28.23;;
16504;SDS011;8365;51.030;4.696;2023-01-29T09:23:59;40.80;;;26.77;;
16504;SDS011;8365;51.030;4.696;2023-01-29T09:26:30;41.87;;;27.93;;
16504;SDS011;8365;51.030;4.696;2023-01-29T09:29:00;43.30;;;28.53;;
16504;SDS011;8365;51.030;4.696;2023-01-29T09:31:30;40.17;;;27.43;;
16504;SDS011;8365;51.030;4.696;2023-01-29T09:34:01;43.80;;;27.97;;
16504;SDS011;8365;51.030;4.696;2023-01-29T09:36:32;46.93;;;28.50;;
16504;SDS011;8365;51.030;4.696;2023-01-29T09:39:02;40.80;;;27.77;;
16504;SDS011;8365;51.030;4.696;2023-01-29T09:44:51;45.63;;;28.77;;
16504;SDS011;8365;51.030;4.696;2023-01-29T09:47:38;42.50;;;27.53;;
16504;SDS011;8365;51.030;4.696;2023-01-29T09:50:29;48.73;;;28.50;;
16504;SDS011;8365;51.030;4.696;2023-01-29T09:56:02;39.73;;;27.90;;
16504;SDS011;8365;51.030;4.696;2023-01-29T09:58:36;39.50;;;27.10;;
16504;SDS011;8365;51.030;4.696;2023-01-29T10:04:04;40.60;;;27.83;;
16504;SDS011;8365;51.030;4.696;2023-01-29T10:09:51;42.20;;;28.23;;
16504;SDS011;8365;51.030;4.696;2023-01-29T10:15:18;43.40;;;28.30;;
16504;SDS011;8365;51.030;4.696;2023-01-29T10:23:55;43.47;;;28.93;;
16504;SDS011;8365;51.030;4.696;2023-01-29T10:26:34;45.17;;;27.03;;
16504;SDS011;8365;51.030;4.696;2023-01-29T10:29:06;44.07;;;28.50;;
16504;SDS011;8365;51.030;4.696;2023-01-29T10:31:42;41.50;;;27.87;;
16504;SDS011;8365;51.030;4.696;2023-01-29T10:34:22;43.00;;;27.23;;
16504;SDS011;8365;51.030;4.696;2023-01-29T10:36:54;43.70;;;27.67;;
16504;SDS011;8365;51.030;4.696;2023-01-29T10:39:26;45.77;;;29.10;;
16504;SDS011;8365;51.030;4.696;2023-01-29T10:42:12;42.90;;;28.13;;
16504;SDS011;8365;51.030;4.696;2023-01-29T10:48:03;44.57;;;28.77;;
16504;SDS011;8365;51.030;4.696;2023-01-29T10:59:48;44.93;;;29.23;;
16504;SDS011;8365;51.030;4.696;2023-01-29T11:02:42;44.20;;;28.90;;
16504;SDS011;8365;51.030;4.696;2023-01-29T11:08:11;46.23;;;28.77;;
16504;SDS011;8365;51.030;4.696;2023-01-29T11:13:46;41.80;;;27.93;;
16504;SDS011;8365;51.030;4.696;2023-01-29T11:16:23;38.43;;;26.80;;
16504;SDS011;8365;51.030;4.696;2023-01-29T11:18:58;39.03;;;26.33;;
16504;SDS011;8365;51.030;4.696;2023-01-29T11:21:30;38.23;;;26.83;;
16504;SDS011;8365;51.030;4.696;2023-01-29T11:24:10;42.20;;;27.60;;
16504;SDS011;8365;51.030;4.696;2023-01-29T11:26:47;38.53;;;27.07;;
16504;SDS011;8365;51.030;4.696;2023-01-29T11:29:36;40.47;;;27.53;;
16504;SDS011;8365;51.030;4.696;2023-01-29T11:37:36;43.53;;;26.70;;
16504;SDS011;8365;51.030;4.696;2023-01-29T11:42:49;44.77;;;28.10;;
16504;SDS011;8365;51.030;4.696;2023-01-29T11:45:26;40.13;;;27.13;;
16504;SDS011;8365;51.030;4.696;2023-01-29T11:48:01;39.53;;;27.13;;
16504;SDS011;8365;51.030;4.696;2023-01-29T11:50:31;43.00;;;26.63;;
16504;SDS011;8365;51.030;4.696;2023-01-29T11:53:03;40.47;;;26.67;;
16504;SDS011;8365;51.030;4.696;2023-01-29T11:55:35;38.77;;;26.57;;
16504;SDS011;8365;51.030;4.696;2023-01-29T11:58:11;40.07;;;26.53;;
16504;SDS011;8365;51.030;4.696;2023-01-29T12:00:47;39.40;;;26.23;;
16504;SDS011;8365;51.030;4.696;2023-01-29T12:03:21;39.70;;;26.93;;
16504;SDS011;8365;51.030;4.696;2023-01-29T12:05:53;41.00;;;25.63;;
16504;SDS011;8365;51.030;4.696;2023-01-29T12:08:29;35.30;;;25.40;;
16504;SDS011;8365;51.030;4.696;2023-01-29T12:11:08;37.90;;;24.60;;
16504;SDS011;8365;51.030;4.696;2023-01-29T12:13:53;36.67;;;24.60;;
16504;SDS011;8365;51.030;4.696;2023-01-29T12:16:35;36.03;;;23.73;;
16504;SDS011;8365;51.030;4.696;2023-01-29T12:24:43;32.17;;;22.37;;
16504;SDS011;8365;51.030;4.696;2023-01-29T12:27:34;33.47;;;23.97;;
16504;SDS011;8365;51.030;4.696;2023-01-29T12:33:13;30.60;;;21.93;;
16504;SDS011;8365;51.030;4.696;2023-01-29T12:35:55;30.17;;;22.07;;
16504;SDS011;8365;51.030;4.696;2023-01-29T12:38:42;30.20;;;21.80;;
16504;SDS011;8365;51.030;4.696;2023-01-29T12:44:10;30.37;;;20.93;;
16504;SDS011;8365;51.030;4.696;2023-01-29T12:46:55;30.73;;;20.90;;
16504;SDS011;8365;51.030;4.696;2023-01-29T12:49:29;31.07;;;20.33;;
16504;SDS011;8365;51.030;4.696;2023-01-29T12:54:41;27.27;;;18.80;;
16504;SDS011;8365;51.030;4.696;2023-01-29T13:00:00;27.10;;;19.67;;
16504;SDS011;8365;51.030;4.696;2023-01-29T13:02:38;27.87;;;19.67;;
16504;SDS011;8365;51.030;4.696;2023-01-29T13:07:55;26.77;;;19.57;;
16504;SDS011;8365;51.030;4.696;2023-01-29T13:10:34;25.37;;;19.07;;
16504;SDS011;8365;51.030;4.696;2023-01-29T13:15:44;24.47;;;16.70;;
16504;SDS011;8365;51.030;4.696;2023-01-29T13:20:52;25.20;;;16.53;;
16504;SDS011;8365;51.030;4.696;2023-01-29T13:23:29;21.57;;;16.63;;
16504;SDS011;8365;51.030;4.696;2023-01-29T13:26:05;23.27;;;16.60;;
16504;SDS011;8365;51.030;4.696;2023-01-29T13:28:35;21.23;;;16.63;;
16504;SDS011;8365;51.030;4.696;2023-01-29T13:31:10;22.40;;;16.20;;
16504;SDS011;8365;51.030;4.696;2023-01-29T13:34:11;23.97;;;16.70;;
16504;SDS011;8365;51.030;4.696;2023-01-29T13:36:44;23.67;;;16.03;;
16504;SDS011;8365;51.030;4.696;2023-01-29T13:44:47;22.07;;;15.80;;
16504;SDS011;8365;51.030;4.696;2023-01-29T13:47:21;22.43;;;15.47;;
16504;SDS011;8365;51.030;4.696;2023-01-29T13:50:17;20.80;;;15.10;;
16504;SDS011;8365;51.030;4.696;2023-01-29T13:52:58;25.43;;;15.20;;
16504;SDS011;8365;51.030;4.696;2023-01-29T13:55:31;19.70;;;15.40;;
16504;SDS011;8365;51.030;4.696;2023-01-29T13:58:07;21.33;;;15.40;;
16504;SDS011;8365;51.030;4.696;2023-01-29T14:00:47;17.87;;;13.73;;
16504;SDS011;8365;51.030;4.696;2023-01-29T14:06:00;19.83;;;14.93;;
16504;SDS011;8365;51.030;4.696;2023-01-29T14:13:44;21.03;;;14.23;;
16504;SDS011;8365;51.030;4.696;2023-01-29T14:18:47;18.90;;;14.63;;
16504;SDS011;8365;51.030;4.696;2023-01-29T14:24:08;19.70;;;15.27;;
16504;SDS011;8365;51.030;4.696;2023-01-29T14:26:46;21.70;;;14.70;;
16504;SDS011;8365;51.030;4.696;2023-01-29T14:29:21;18.70;;;13.63;;
16504;SDS011;8365;51.030;4.696;2023-01-29T14:34:49;19.10;;;14.00;;
16504;SDS011;8365;51.030;4.696;2023-01-29T14:37:28;20.63;;;15.33;;
16504;SDS011;8365;51.030;4.696;2023-01-29T14:45:35;21.00;;;14.87;;
16504;SDS011;8365;51.030;4.696;2023-01-29T14:51:11;19.60;;;15.13;;
16504;SDS011;8365;51.030;4.696;2023-01-29T14:53:46;21.53;;;15.20;;
16504;SDS011;8365;51.030;4.696;2023-01-29T14:56:40;20.50;;;14.93;;
16504;SDS011;8365;51.030;4.696;2023-01-29T15:00:25;19.40;;;15.67;;
16504;SDS011;8365;51.030;4.696;2023-01-29T15:02:50;19.53;;;14.53;;
16504;SDS011;8365;51.030;4.696;2023-01-29T15:05:25;20.93;;;14.97;;
16504;SDS011;8365;51.030;4.696;2023-01-29T15:08:19;20.20;;;15.50;;
16504;SDS011;8365;51.030;4.696;2023-01-29T15:11:21;19.70;;;15.00;;
16504;SDS011;8365;51.030;4.696;2023-01-29T15:16:55;20.23;;;15.57;;
16504;SDS011;8365;51.030;4.696;2023-01-29T15:19:40;20.07;;;16.03;;
16504;SDS011;8365;51.030;4.696;2023-01-29T15:22:17;19.67;;;15.53;;
16504;SDS011;8365;51.030;4.696;2023-01-29T15:25:06;21.60;;;15.37;;
16504;SDS011;8365;51.030;4.696;2023-01-29T15:27:42;23.10;;;15.30;;
16504;SDS011;8365;51.030;4.696;2023-01-29T15:30:15;20.53;;;15.20;;
16504;SDS011;8365;51.030;4.696;2023-01-29T15:32:49;20.90;;;15.73;;
16504;SDS011;8365;51.030;4.696;2023-01-29T15:37:57;22.80;;;15.73;;
16504;SDS011;8365;51.030;4.696;2023-01-29T15:41:12;20.63;;;15.90;;
16504;SDS011;8365;51.030;4.696;2023-01-29T15:43:54;19.10;;;15.03;;
16504;SDS011;8365;51.030;4.696;2023-01-29T15:46:31;19.60;;;15.47;;
16504;SDS011;8365;51.030;4.696;2023-01-29T15:49:06;20.07;;;15.73;;
16504;SDS011;8365;51.030;4.696;2023-01-29T15:51:38;24.23;;;15.63;;
16504;SDS011;8365;51.030;4.696;2023-01-29T15:54:09;21.10;;;16.40;;
16504;SDS011;8365;51.030;4.696;2023-01-29T15:56:47;22.97;;;17.13;;
16504;SDS011;8365;51.030;4.696;2023-01-29T15:59:28;23.03;;;17.10;;
16504;SDS011;8365;51.030;4.696;2023-01-29T16:04:59;22.80;;;17.43;;
16504;SDS011;8365;51.030;4.696;2023-01-29T16:07:29;22.63;;;17.07;;
16504;SDS011;8365;51.030;4.696;2023-01-29T16:10:00;28.10;;;18.23;;
16504;SDS011;8365;51.030;4.696;2023-01-29T16:12:32;24.33;;;17.93;;
16504;SDS011;8365;51.030;4.696;2023-01-29T16:15:05;24.37;;;18.33;;
16504;SDS011;8365;51.030;4.696;2023-01-29T16:17:42;26.87;;;18.90;;
16504;SDS011;8365;51.030;4.696;2023-01-29T16:23:18;28.97;;;19.77;;
16504;SDS011;8365;51.030;4.696;2023-01-29T16:25:54;31.67;;;19.73;;
16504;SDS011;8365;51.030;4.696;2023-01-29T16:28:30;29.10;;;20.87;;
16504;SDS011;8365;51.030;4.696;2023-01-29T16:31:03;29.87;;;21.23;;
16504;SDS011;8365;51.030;4.696;2023-01-29T16:33:34;31.47;;;21.87;;
16504;SDS011;8365;51.030;4.696;2023-01-29T16:36:09;29.97;;;21.13;;
16504;SDS011;8365;51.030;4.696;2023-01-29T16:38:47;32.50;;;22.53;;
16504;SDS011;8365;51.030;4.696;2023-01-29T16:43:56;31.63;;;20.60;;
16504;SDS011;8365;51.030;4.696;2023-01-29T16:46:45;28.23;;;20.13;;
16504;SDS011;8365;51.030;4.696;2023-01-29T16:52:15;31.73;;;21.13;;
16504;SDS011;8365;51.030;4.696;2023-01-29T16:54:49;30.90;;;21.73;;
16504;SDS011;8365;51.030;4.696;2023-01-29T16:57:23;33.77;;;21.63;;
16504;SDS011;8365;51.030;4.696;2023-01-29T16:59:59;32.63;;;20.80;;
16504;SDS011;8365;51.030;4.696;2023-01-29T17:02:35;35.13;;;22.57;;
16504;SDS011;8365;51.030;4.696;2023-01-29T17:05:09;32.67;;;21.53;;
16504;SDS011;8365;51.030;4.696;2023-01-29T17:07:48;30.50;;;21.83;;
16504;SDS011;8365;51.030;4.696;2023-01-29T17:10:19;33.43;;;22.33;;
16504;SDS011;8365;51.030;4.696;2023-01-29T17:12:58;34.63;;;22.17;;
16504;SDS011;8365;51.030;4.696;2023-01-29T17:18:18;31.90;;;22.43;;
16504;SDS011;8365;51.030;4.696;2023-01-29T17:20:50;32.33;;;22.40;;
16504;SDS011;8365;51.030;4.696;2023-01-29T17:23:24;28.87;;;21.03;;
16504;SDS011;8365;51.030;4.696;2023-01-29T17:25:54;29.63;;;21.20;;
16504;SDS011;8365;51.030;4.696;2023-01-29T17:28:25;32.53;;;22.33;;
16504;SDS011;8365;51.030;4.696;2023-01-29T17:30:57;34.77;;;22.90;;
16504;SDS011;8365;51.030;4.696;2023-01-29T17:33:28;33.73;;;22.53;;
16504;SDS011;8365;51.030;4.696;2023-01-29T17:35:58;30.20;;;21.00;;
16504;SDS011;8365;51.030;4.696;2023-01-29T17:38:29;31.90;;;22.10;;
16504;SDS011;8365;51.030;4.696;2023-01-29T17:41:07;35.27;;;21.83;;
16504;SDS011;8365;51.030;4.696;2023-01-29T17:44:00;30.50;;;21.03;;
16504;SDS011;8365;51.030;4.696;2023-01-29T17:46:31;31.17;;;21.50;;
16504;SDS011;8365;51.030;4.696;2023-01-29T17:49:01;31.17;;;21.50;;
16504;SDS011;8365;51.030;4.696;2023-01-29T17:51:33;36.20;;;22.20;;
16504;SDS011;8365;51.030;4.696;2023-01-29T17:54:06;32.10;;;22.30;;
16504;SDS011;8365;51.030;4.696;2023-01-29T17:56:36;34.33;;;22.10;;
16504;SDS011;8365;51.030;4.696;2023-01-29T17:59:14;32.37;;;22.13;;
16504;SDS011;8365;51.030;4.696;2023-01-29T18:01:49;32.97;;;21.10;;
16504;SDS011;8365;51.030;4.696;2023-01-29T18:04:20;33.63;;;22.60;;
16504;SDS011;8365;51.030;4.696;2023-01-29T18:06:54;33.87;;;22.00;;
16504;SDS011;8365;51.030;4.696;2023-01-29T18:09:26;31.03;;;21.70;;
16504;SDS011;8365;51.030;4.696;2023-01-29T18:11:57;33.80;;;23.70;;
16504;SDS011;8365;51.030;4.696;2023-01-29T18:14:27;30.97;;;21.77;;
16504;SDS011;8365;51.030;4.696;2023-01-29T18:16:57;35.20;;;23.70;;
16504;SDS011;8365;51.030;4.696;2023-01-29T18:19:28;33.67;;;22.23;;
16504;SDS011;8365;51.030;4.696;2023-01-29T18:22:00;34.77;;;23.40;;